logo tempoitalia

Diretta Meteo Estherville, Stati Uniti (USA)lunedì 31 agosto ore 00:49

Mappa
Sereno 22 °C Foschia 24 Ore: T.min 19 T.max 31
Ponente Sud Km/h 11.1 Punto di rugiada: 22 °C Umidità: 100% Visibilità: 6 Km
Il sole sorge alle: 06:42 Il sole tramonta alle: 19:56
31 Agosto 2026 00:49 tempo osservato: Foschia Foschia 22 100 1009 vento: Nord S 11.1
30 Agosto 2026 23:49 tempo osservato: Foschia Foschia 22 100 1009 vento: Nord S 9.3
30 Agosto 2026 22:49 tempo osservato: Sereno Sereno 23 94 1009 vento: Nord S 11.1
30 Agosto 2026 21:49 tempo osservato: Sereno Sereno 24 88 1008 vento: Nord S 11.1
30 Agosto 2026 20:49 tempo osservato: Sereno Sereno 24 88 1008 vento: Nord S 11.1
30 Agosto 2026 19:49 tempo osservato: Sereno Sereno 26 78 1008 vento: Nord S 13
30 Agosto 2026 18:49 tempo osservato: Sereno Sereno 28 69 1008 vento: Nord S 20.3
30 Agosto 2026 17:49 tempo osservato: Sereno Sereno 29 66 1007 vento: Nord S 20.3
30 Agosto 2026 16:49 tempo osservato: Sereno Sereno 29 66 1007 vento: Nord S 20.3
30 Agosto 2026 15:49 tempo osservato: Sereno Sereno 31 58 1007 vento: Nord S 20.3
30 Agosto 2026 14:49 tempo osservato: Sereno Sereno 31 58 1008 vento: Nord S 22.2
30 Agosto 2026 13:49 tempo osservato: Sereno Sereno 29 62 1008 vento: Nord S 20.3
30 Agosto 2026 12:49 tempo osservato: Sereno Sereno 31 55 1008 vento: Nord S 18.5
30 Agosto 2026 11:49 tempo osservato: Sereno Sereno 27 69 1008 vento: Nord S/SO 14.8
30 Agosto 2026 10:49 tempo osservato: Sereno Sereno 26 73 1008 vento: Nord S 16.7
30 Agosto 2026 09:49 tempo osservato: Sereno Sereno 24 78 1008 vento: Nord S/SO 13
30 Agosto 2026 08:49 tempo osservato: Sereno Sereno 23 88 1008 vento: Nord S 16.7
30 Agosto 2026 07:49 tempo osservato: Foschia Foschia 21 88 1008 vento: Nord N 5.5
30 Agosto 2026 06:49 tempo osservato: Foschia Foschia 19 100 1008 vento: Nord N 5.5
30 Agosto 2026 05:49 tempo osservato: Foschia Foschia 19 100 1008 vento: Nord S/SE 7.4
30 Agosto 2026 04:49 tempo osservato: Foschia Foschia 19 100 1008 vento: Nord N 5.5
30 Agosto 2026 03:49 tempo osservato: Sereno Sereno 19 100 1008 vento: Nord N 5.5
30 Agosto 2026 02:49 tempo osservato: Foschia Foschia 20 93 1008 vento: Nord N 5.5
30 Agosto 2026 01:49 tempo osservato: Sereno Sereno 20 93 1008 vento: Nord N 5.5